YMV weather

Mary River Aerodrome
Nunavut, Canada

Public forecast

Using degrees Celsius for public forecast. Weather courtesy of forecast.io.

Closest aviation weather report (METAR) to Mary River Aerodrome

Closest report is Pond Inlet Airport, 85.6 nm (158.5 km) NNE. Retrieved 2019/12/11 19:00 UTC (5 minutes ago):

CYIO 111900Z 17005KT 40SM FEW065 FEW140 SCT230 M29/M32 A2967 RMK SC1AC1CC1 SLP060

Closest aviation forecast (TAF) to Mary River Aerodrome

Closest forecast is Pond Inlet Airport, 85.6 nm (158.5 km) NNE. Retrieved 2019/12/11 19:42 UTC (0 seconds ago):

TAF CYIO 111838Z 1119/1207 VRB03KT P6SM FEW060 TEMPO 1119/1207 4SM IC RMK NXT FCST BY 120100Z